Time;durP1;ratioP1;P1;durP2;ratioP2;P2;SDS_P1;SDS_P2;PMS_P1;PMS_P2;Temp;Humidity;BMP_temperature;BMP_pressure;BME280_temperature;BME280_humidity;BME280_pressure;Samples;Min_cycle;Max_cycle;Signal;HPM_P1;HPM_P2
2023/01/18 00:01:38;;;;;;;;;;;;;;;6.98;75.02;97547.19;5416490;32;34078;-81
2023/01/18 00:04:40;;;;;;;;;;;;;;;5.77;77.68;97559.66;5409986;32;33479;-76
2023/01/18 00:07:42;;;;;;;;;;;;;;;6.32;76.26;97558.69;5420512;32;34501;-81
2023/01/18 00:10:44;;;;;;;;;;;;;;;6.03;77.86;97558.81;5388144;32;34500;-80
2023/01/18 00:13:46;;;;;;;;;;;;;;;6.52;76.29;97537.28;5419615;32;43804;-80
2023/01/18 00:16:48;;;;;;;;;;;;;;;6.09;77.66;97519.31;5399988;32;35798;-81
2023/01/18 00:19:50;;;;;;;;;;;;;;;6.55;76.01;97500.53;5406372;32;33921;-77
2023/01/18 00:22:52;;;;;;;;;;;;;;;6.36;76.80;97503.56;5417731;32;34135;-83
2023/01/18 00:25:58;;;;;;;;;;;;;;;7.05;74.17;97486.59;5381691;32;33680;-76
2023/01/18 00:29:00;;;;;;;;;;;;;;;7.12;74.42;97483.53;5414444;32;33055;-82
2023/01/18 00:32:02;;;;;;;;;;;;;;;6.90;73.84;97492.06;5393062;32;33808;-74
2023/01/18 00:35:06;;;;;;;;;;;;;;;7.71;70.50;97517.59;5401114;32;33831;-76
2023/01/18 00:38:12;;;;;;;;;;;;;;;7.12;72.46;97531.37;5414928;32;34791;-75
2023/01/18 00:41:14;;;;;;;;;;;;;;;7.03;72.23;97548.53;5387784;32;34461;-76
2023/01/18 00:44:16;;;;;;;;;;;;;;;6.96;72.86;97589.09;5411227;32;33741;-82
2023/01/18 00:47:18;;;;;;;;;;;;;;;8.13;67.68;97602.56;5398924;32;44959;-80
2023/01/18 00:50:21;;;;;;;;;;;;;;;7.87;67.76;97627.97;5417026;32;33091;-81
2023/01/18 00:53:23;;;;;;;;;;;;;;;6.81;72.62;97633.66;5404587;32;34459;-76
2023/01/18 00:56:24;;;;;;;;;;;;;;;6.81;73.32;97644.94;5405273;32;34264;-81
2023/01/18 00:59:26;;;;;;;;;;;;;;;7.13;73.42;97640.13;5411854;32;33544;-76
2023/01/18 01:02:28;;;;;;;;;;;;;;;7.78;70.58;97634.69;5417801;32;33319;-81
2023/01/18 01:08:51;;;;;;;;;;;;;;;8.22;68.97;97622.78;5409544;32;46356;-82
2023/01/18 01:28:38;;;;;;;;;;;;;;;7.80;71.28;97604.06;5424622;32;34546;-82
2023/01/18 01:31:40;;;;;;;;;;;;;;;6.93;72.90;97602.34;5399648;32;34186;-76
2023/01/18 01:34:41;;;;;;;;;;;;;;;7.67;71.06;97584.97;5410864;32;34187;-77
2023/01/18 01:37:43;;;;;;;;;;;;;;;7.84;70.66;97581.12;5417721;32;34240;-76
2023/01/18 01:40:54;;;;;;;;;;;;;;;8.58;66.74;97600.94;5409440;32;33611;-81
2023/01/18 01:43:57;;;;;;;;;;;;;;;8.13;69.07;97626.09;5420000;32;44102;-81
2023/01/18 01:47:01;;;;;;;;;;;;;;;8.99;65.85;97633.63;5384039;32;33201;-76
2023/01/18 01:50:06;;;;;;;;;;;;;;;9.15;64.73;97628.91;5383716;32;34256;-75
2023/01/18 01:53:08;;;;;;;;;;;;;;;8.89;65.52;97633.53;5402498;32;34990;-80
2023/01/18 01:56:10;;;;;;;;;;;;;;;8.64;66.43;97625.84;5377273;32;34693;-83
2023/01/18 01:59:12;;;;;;;;;;;;;;;8.87;66.35;97640.63;5421899;32;33713;-76
2023/01/18 02:02:14;;;;;;;;;;;;;;;9.08;65.24;97640.81;5401488;32;34446;-82
2023/01/18 02:05:16;;;;;;;;;;;;;;;9.09;65.02;97644.28;5406943;32;34619;-76
2023/01/18 02:08:21;;;;;;;;;;;;;;;8.88;65.60;97631.00;5407889;32;45208;-81
2023/01/18 02:11:23;;;;;;;;;;;;;;;8.77;66.35;97623.13;5399297;32;33898;-82
2023/01/18 02:14:25;;;;;;;;;;;;;;;8.66;67.50;97634.41;5415927;32;34497;-84
2023/01/18 02:17:34;;;;;;;;;;;;;;;8.56;67.98;97639.47;5400536;32;34921;-81
2023/01/18 02:20:54;;;;;;;;;;;;;;;9.11;65.50;97655.47;5412651;32;33688;-76
2023/01/18 02:24:15;;;;;;;;;;;;;;;8.83;66.62;97672.44;5396660;32;33933;-78
2023/01/18 02:27:42;;;;;;;;;;;;;;;8.48;68.80;97681.09;5411021;32;47231;-82
2023/01/18 02:31:03;;;;;;;;;;;;;;;8.82;68.77;97682.09;5408247;32;33778;-77
2023/01/18 02:34:12;;;;;;;;;;;;;;;8.60;70.13;97674.97;5412781;32;34802;-82
2023/01/18 02:37:14;;;;;;;;;;;;;;;7.81;74.20;97686.78;5418139;32;34431;-77
2023/01/18 02:40:28;;;;;;;;;;;;;;;8.24;72.09;97677.63;5413532;32;34392;-77
2023/01/18 02:46:51;;;;;;;;;;;;;;;9.07;69.60;97675.81;5421435;32;45995;-76
2023/01/18 02:49:54;;;;;;;;;;;;;;;8.90;70.39;97678.88;5404440;32;34603;-81
2023/01/18 02:52:56;;;;;;;;;;;;;;;8.87;70.91;97666.81;5390632;32;34807;-81
2023/01/18 02:56:02;;;;;;;;;;;;;;;8.97;71.04;97674.84;5415715;32;34173;-81
2023/01/18 02:59:04;;;;;;;;;;;;;;;8.78;70.66;97675.38;5417005;32;32964;-82
2023/01/18 03:02:07;;;;;;;;;;;;;;;8.35;72.43;97680.31;5421538;32;34516;-75
2023/01/18 03:05:09;;;;;;;;;;;;;;;8.19;74.70;97675.34;5408767;32;33701;-82
2023/01/18 03:08:14;;;;;;;;;;;;;;;8.68;71.90;97666.53;5389418;32;37000;-76
2023/01/18 03:11:19;;;;;;;;;;;;;;;8.23;73.47;97658.47;5410308;32;34668;-77
2023/01/18 03:14:27;;;;;;;;;;;;;;;8.28;75.04;97668.63;5404509;32;44679;-81
2023/01/18 03:17:32;;;;;;;;;;;;;;;8.67;71.28;97673.56;5407809;32;34417;-80
2023/01/18 03:20:34;;;;;;;;;;;;;;;8.52;71.22;97656.38;5415699;32;32807;-81
2023/01/18 03:23:37;;;;;;;;;;;;;;;8.13;73.23;97658.31;5422723;32;33302;-77
2023/01/18 03:26:40;;;;;;;;;;;;;;;8.19;73.77;97664.06;5400947;32;34046;-80
2023/01/18 03:36:26;;;;;;;;;;;;;;;8.27;73.57;97670.41;5400661;32;44745;-77
2023/01/18 03:39:29;;;;;;;;;;;;;;;8.42;74.01;97647.53;5416211;32;33332;-77
2023/01/18 03:42:36;;;;;;;;;;;;;;;8.86;71.19;97643.38;5397186;32;34528;-81
2023/01/18 03:45:41;;;;;;;;;;;;;;;8.59;71.46;97635.81;5430215;32;34376;-82
2023/01/18 03:48:43;;;;;;;;;;;;;;;9.12;68.79;97647.47;5406910;32;33320;-77
2023/01/18 03:51:50;;;;;;;;;;;;;;;8.59;69.94;97639.28;5392124;32;33535;-82
2023/01/18 03:55:00;;;;;;;;;;;;;;;8.80;69.91;97644.66;5422324;32;45231;-76
2023/01/18 03:58:09;;;;;;;;;;;;;;;8.34;73.06;97649.84;5396159;32;34532;-75
2023/01/18 04:01:11;;;;;;;;;;;;;;;8.01;74.42;97642.69;5404734;32;34790;-84
2023/01/18 04:04:14;;;;;;;;;;;;;;;8.82;71.57;97647.16;5396624;32;33846;-75
2023/01/18 04:07:16;;;;;;;;;;;;;;;8.62;72.02;97657.34;5420208;32;33854;-76
2023/01/18 04:10:17;;;;;;;;;;;;;;;8.78;71.30;97669.31;5404076;32;43234;-82
2023/01/18 04:13:19;;;;;;;;;;;;;;;7.91;72.98;97670.41;5396904;32;33987;-83
2023/01/18 04:16:21;;;;;;;;;;;;;;;8.43;73.44;97661.44;5413931;32;34397;-81
2023/01/18 04:19:23;;;;;;;;;;;;;;;8.33;73.44;97663.88;5413282;32;31637;-76
2023/01/18 04:22:25;;;;;;;;;;;;;;;9.08;68.30;97659.16;5403544;32;33688;-81
2023/01/18 04:25:27;;;;;;;;;;;;;;;8.67;70.51;97662.25;5383819;32;32948;-81
2023/01/18 04:28:32;;;;;;;;;;;;;;;7.82;74.62;97643.16;5424275;32;33672;-77
2023/01/18 04:31:34;;;;;;;;;;;;;;;7.75;76.58;97636.69;5396968;32;35599;-82
2023/01/18 04:34:36;;;;;;;;;;;;;;;7.64;77.10;97631.37;5405096;32;33409;-75
2023/01/18 04:37:38;;;;;;;;;;;;;;;8.65;72.72;97644.03;5404970;32;32200;-81
2023/01/18 04:40:40;;;;;;;;;;;;;;;8.60;72.12;97661.87;5391451;32;34590;-81
2023/01/18 04:43:42;;;;;;;;;;;;;;;8.81;71.80;97682.16;5424116;32;33923;-81
2023/01/18 04:46:44;;;;;;;;;;;;;;;8.79;69.86;97692.78;5411637;32;34184;-80
2023/01/18 04:49:46;;;;;;;;;;;;;;;8.11;73.08;97707.31;5412973;32;35595;-76
2023/01/18 04:52:48;;;;;;;;;;;;;;;7.93;74.54;97695.53;5379268;32;44608;-80
2023/01/18 04:55:50;;;;;;;;;;;;;;;8.08;73.61;97691.00;5401280;32;34041;-81
2023/01/18 04:58:53;;;;;;;;;;;;;;;7.85;75.46;97700.44;5406022;32;34651;-75
2023/01/18 05:01:55;;;;;;;;;;;;;;;8.24;74.07;97691.53;5404264;32;33345;-74
2023/01/18 05:04:58;;;;;;;;;;;;;;;7.78;75.32;97670.47;5405930;32;33910;-80
2023/01/18 05:08:00;;;;;;;;;;;;;;;7.95;76.56;97680.56;5401611;32;34133;-76
2023/01/18 05:11:10;;;;;;;;;;;;;;;8.65;71.86;97719.16;5401976;32;34875;-76
2023/01/18 05:14:12;;;;;;;;;;;;;;;8.62;71.62;97740.31;5403724;32;34775;-75
2023/01/18 05:17:14;;;;;;;;;;;;;;;8.42;72.64;97746.97;5403991;32;32770;-81
2023/01/18 05:20:16;;;;;;;;;;;;;;;8.08;73.85;97761.63;5416975;32;43403;-76
2023/01/18 05:23:18;;;;;;;;;;;;;;;8.00;74.35;97763.94;5400641;32;33931;-76
2023/01/18 05:26:21;;;;;;;;;;;;;;;7.73;76.05;97769.28;5419469;32;33741;-83
2023/01/18 05:29:23;;;;;;;;;;;;;;;7.77;75.95;97749.84;5399035;32;34174;-77
2023/01/18 05:32:25;;;;;;;;;;;;;;;6.88;78.96;97760.25;5395804;32;33929;-80
2023/01/18 05:35:27;;;;;;;;;;;;;;;7.74;76.36;97755.31;5405425;32;34200;-75
2023/01/18 05:38:29;;;;;;;;;;;;;;;8.23;72.58;97765.75;5383573;32;33535;-76
2023/01/18 05:41:31;;;;;;;;;;;;;;;7.92;74.40;97761.00;5421640;32;34572;-82
2023/01/18 05:44:33;;;;;;;;;;;;;;;8.06;73.19;97755.66;5385393;32;33850;-82
2023/01/18 05:47:35;;;;;;;;;;;;;;;8.35;71.76;97750.97;5417662;32;33943;-81
2023/01/18 05:50:42;;;;;;;;;;;;;;;7.75;73.36;97765.66;5391571;32;33337;-75
2023/01/18 05:53:44;;;;;;;;;;;;;;;6.86;78.09;97760.34;5396370;32;34872;-78
2023/01/18 05:56:46;;;;;;;;;;;;;;;7.47;74.68;97748.41;5413759;32;32476;-80
2023/01/18 05:59:48;;;;;;;;;;;;;;;7.27;73.90;97754.97;5402593;32;34500;-76
2023/01/18 06:02:51;;;;;;;;;;;;;;;6.94;73.36;97744.16;5418260;32;34083;-76
2023/01/18 06:05:53;;;;;;;;;;;;;;;6.51;74.79;97732.16;5388740;32;33943;-76
2023/01/18 06:08:55;;;;;;;;;;;;;;;6.53;76.88;97723.41;5408386;32;34633;-82
2023/01/18 06:11:57;;;;;;;;;;;;;;;7.50;71.22;97745.56;5392053;32;34817;-83
2023/01/18 06:14:59;;;;;;;;;;;;;;;7.26;71.81;97755.06;5410755;32;34149;-76
2023/01/18 06:18:01;;;;;;;;;;;;;;;7.32;70.07;97759.87;5409855;32;34012;-75
2023/01/18 06:21:03;;;;;;;;;;;;;;;7.38;70.84;97758.66;5375422;32;33921;-81
2023/01/18 06:24:05;;;;;;;;;;;;;;;6.22;76.49;97772.31;5424303;32;33909;-81
2023/01/18 06:27:07;;;;;;;;;;;;;;;6.53;76.27;97763.38;5402578;32;34724;-75
2023/01/18 06:30:10;;;;;;;;;;;;;;;7.64;71.26;97772.56;5421657;32;34194;-82
2023/01/18 06:33:15;;;;;;;;;;;;;;;7.94;70.38;97780.91;5407041;32;33882;-76
2023/01/18 06:36:17;;;;;;;;;;;;;;;7.66;71.18;97781.94;5395241;32;45790;-77
2023/01/18 06:39:19;;;;;;;;;;;;;;;6.91;72.83;97784.38;5399676;32;33190;-77
2023/01/18 06:42:21;;;;;;;;;;;;;;;6.57;76.27;97767.47;5390800;32;34061;-80
2023/01/18 06:45:24;;;;;;;;;;;;;;;6.80;74.23;97721.59;5420605;32;33607;-80
2023/01/18 06:48:27;;;;;;;;;;;;;;;7.23;74.20;97677.75;5406160;32;33712;-82
2023/01/18 06:51:29;;;;;;;;;;;;;;;7.43;73.18;97722.59;5400175;32;33923;-77
2023/01/18 06:54:32;;;;;;;;;;;;;;;7.02;74.64;97726.25;5406187;32;33299;-86
2023/01/18 06:57:34;;;;;;;;;;;;;;;7.04;74.11;97719.12;5419585;32;36495;-85
2023/01/18 07:00:36;;;;;;;;;;;;;;;8.24;68.18;97771.81;5406331;32;33122;-82
2023/01/18 07:03:38;;;;;;;;;;;;;;;6.99;72.85;97812.59;5411381;32;34519;-81
2023/01/18 07:06:40;;;;;;;;;;;;;;;7.10;73.45;97822.34;5426298;32;33394;-75
2023/01/18 07:09:42;;;;;;;;;;;;;;;6.73;75.20;97806.47;5382096;32;33256;-76
2023/01/18 07:12:47;;;;;;;;;;;;;;;7.86;68.69;97815.44;5411585;32;33192;-90
2023/01/18 07:15:57;;;;;;;;;;;;;;;7.20;69.47;97813.78;5385943;32;45174;-80
2023/01/18 07:19:02;;;;;;;;;;;;;;;7.83;68.49;97802.56;5398538;32;34033;-72
2023/01/18 07:22:04;;;;;;;;;;;;;;;6.86;71.69;97817.78;5418986;32;34267;-71
2023/01/18 07:25:07;;;;;;;;;;;;;;;7.29;72.79;97825.44;5380548;32;33432;-77
2023/01/18 07:28:09;;;;;;;;;;;;;;;8.08;68.62;97850.56;5414284;32;33380;-73
2023/01/18 07:31:11;;;;;;;;;;;;;;;8.15;67.75;97870.12;5391987;32;33233;-69
2023/01/18 07:34:13;;;;;;;;;;;;;;;8.07;67.53;97883.72;5416519;32;34034;-70
2023/01/18 07:37:16;;;;;;;;;;;;;;;7.90;69.02;97888.44;5408473;32;33053;-86
2023/01/18 07:40:20;;;;;;;;;;;;;;;7.42;71.09;97883.78;5381105;32;43731;-75
2023/01/18 07:43:24;;;;;;;;;;;;;;;7.54;70.65;97889.97;5416090;32;34987;-77
2023/01/18 07:46:27;;;;;;;;;;;;;;;6.66;74.95;97901.75;5407071;32;36191;-76
2023/01/18 07:49:29;;;;;;;;;;;;;;;7.16;72.51;97916.84;5415150;32;33826;-85
2023/01/18 07:52:31;;;;;;;;;;;;;;;6.96;72.96;97919.87;5395568;32;34403;-82
2023/01/18 07:55:33;;;;;;;;;;;;;;;7.09;73.75;97943.44;5419333;32;36458;-78
2023/01/18 07:58:35;;;;;;;;;;;;;;;7.77;70.87;97938.94;5409960;32;33700;-74
2023/01/18 08:01:37;;;;;;;;;;;;;;;7.43;69.24;97940.34;5394502;32;33870;-70
2023/01/18 08:04:40;;;;;;;;;;;;;;;8.49;64.83;97947.16;5414055;32;33404;-72
2023/01/18 08:07:42;;;;;;;;;;;;;;;7.74;66.17;97947.00;5405921;32;34627;-71
2023/01/18 08:10:53;;;;;;;;;;;;;;;8.24;64.98;97950.59;5410141;32;44404;-78
2023/01/18 08:13:55;;;;;;;;;;;;;;;8.88;61.59;97971.50;5399130;32;34091;-83
2023/01/18 08:16:57;;;;;;;;;;;;;;;8.76;62.03;97981.09;5395128;32;33118;-77
2023/01/18 08:19:59;;;;;;;;;;;;;;;8.73;61.69;97986.53;5401082;32;33266;-80
2023/01/18 08:23:02;;;;;;;;;;;;;;;8.57;61.50;97988.53;5399547;32;34964;-73
2023/01/18 08:26:04;;;;;;;;;;;;;;;7.90;65.21;98014.81;5418263;32;33377;-78
2023/01/18 08:29:07;;;;;;;;;;;;;;;8.40;62.27;98021.94;5400315;32;33811;-75
2023/01/18 08:32:09;;;;;;;;;;;;;;;8.29;62.08;98034.87;5412128;32;33225;-80
2023/01/18 08:35:11;;;;;;;;;;;;;;;7.99;62.98;98034.31;5406916;32;34467;-72
2023/01/18 08:38:13;;;;;;;;;;;;;;;7.98;63.98;98043.91;5406929;32;33460;-71
2023/01/18 08:41:16;;;;;;;;;;;;;;;8.33;62.89;98025.88;5417709;32;34684;-81
2023/01/18 08:44:18;;;;;;;;;;;;;;;8.79;61.60;98021.94;5392366;32;44470;-73
2023/01/18 08:47:20;;;;;;;;;;;;;;;7.61;66.38;98040.25;5420502;32;33968;-70
2023/01/18 08:50:22;;;;;;;;;;;;;;;7.83;65.09;98047.53;5402668;32;34943;-82
2023/01/18 08:53:24;;;;;;;;;;;;;;;7.70;65.62;98064.94;5404539;32;34675;-79
2023/01/18 08:56:26;;;;;;;;;;;;;;;8.99;61.79;98052.81;5399141;32;35486;-84
2023/01/18 08:59:29;;;;;;;;;;;;;;;8.90;61.35;98063.94;5410328;32;34637;-90
2023/01/18 09:02:31;;;;;;;;;;;;;;;8.59;61.08;98067.81;5408670;32;33782;-72
2023/01/18 09:05:34;;;;;;;;;;;;;;;8.71;61.64;98097.56;5402747;32;34652;-81
2023/01/18 09:08:36;;;;;;;;;;;;;;;9.14;59.71;98098.91;5411291;32;33329;-73
2023/01/18 09:11:38;;;;;;;;;;;;;;;8.22;62.16;98099.03;5398748;32;33454;-75
2023/01/18 09:14:40;;;;;;;;;;;;;;;8.22;62.67;98095.56;5404238;32;32640;-81
2023/01/18 09:17:42;;;;;;;;;;;;;;;9.03;61.11;98093.59;5398929;32;33299;-74
2023/01/18 09:20:44;;;;;;;;;;;;;;;8.89;62.00;98101.56;5393802;32;34510;-70
2023/01/18 09:23:47;;;;;;;;;;;;;;;9.49;59.07;98130.53;5396103;32;36316;-73
2023/01/18 09:26:50;;;;;;;;;;;;;;;9.19;58.71;98137.91;5405980;32;33259;-76
2023/01/18 09:29:54;;;;;;;;;;;;;;;8.86;60.29;98170.69;5405651;32;34606;-70
2023/01/18 09:32:56;;;;;;;;;;;;;;;8.43;62.04;98203.28;5404310;32;33944;-82
2023/01/18 09:36:04;;;;;;;;;;;;;;;8.60;61.46;98219.56;5420190;32;33776;-72
2023/01/18 09:39:06;;;;;;;;;;;;;;;8.50;61.48;98225.50;5414149;32;33185;-75
2023/01/18 09:42:12;;;;;;;;;;;;;;;7.25;66.09;98237.59;5410818;32;34460;-80
2023/01/18 09:45:26;;;;;;;;;;;;;;;7.54;65.44;98245.47;5412615;32;33446;-83
2023/01/18 09:48:29;;;;;;;;;;;;;;;7.44;64.02;98250.41;5393693;32;35153;-82
2023/01/18 09:51:32;;;;;;;;;;;;;;;7.31;67.13;98265.13;5392402;32;34037;-81
2023/01/18 09:55:03;;;;;;;;;;;;;;;7.54;64.63;98238.47;5407278;32;33531;-71
2023/01/18 09:58:21;;;;;;;;;;;;;;;7.67;63.95;98261.25;5372775;32;33190;-76
2023/01/18 10:01:27;;;;;;;;;;;;;;;7.67;64.76;98263.87;5416671;32;46248;-79
2023/01/18 10:04:35;;;;;;;;;;;;;;;7.69;65.46;98267.22;5411523;32;34570;-77
2023/01/18 10:07:44;;;;;;;;;;;;;;;8.26;62.35;98264.53;5402478;32;33970;-77
2023/01/18 10:10:50;;;;;;;;;;;;;;;7.88;64.56;98279.06;5402606;32;37386;-77
2023/01/18 10:13:58;;;;;;;;;;;;;;;8.30;62.70;98276.47;5410092;32;33352;-71
2023/01/18 10:17:02;;;;;;;;;;;;;;;8.82;61.81;98283.63;5417227;32;33817;-84
2023/01/18 10:20:11;;;;;;;;;;;;;;;7.93;63.27;98291.03;5409537;32;35103;-76
2023/01/18 10:23:15;;;;;;;;;;;;;;;7.93;64.88;98296.28;5427914;32;32125;-84
2023/01/18 10:26:26;;;;;;;;;;;;;;;8.98;60.99;98314.94;5401816;32;44912;-73
2023/01/18 10:29:54;;;;;;;;;;;;;;;7.92;65.09;98326.81;5400163;32;34886;-74
2023/01/18 10:33:01;;;;;;;;;;;;;;;8.26;64.34;98337.81;5374238;32;33399;-74
2023/01/18 10:36:07;;;;;;;;;;;;;;;7.59;65.33;98329.66;5391305;32;32996;-78
2023/01/18 10:39:33;;;;;;;;;;;;;;;7.69;66.77;98319.50;5421349;32;34559;-77
2023/01/18 10:42:45;;;;;;;;;;;;;;;9.23;63.36;98325.47;5387389;32;33937;-72
2023/01/18 10:45:47;;;;;;;;;;;;;;;8.22;64.43;98313.59;5404553;32;46618;-67
2023/01/18 10:48:51;;;;;;;;;;;;;;;8.34;62.53;98338.19;5416738;32;33061;-71
2023/01/18 10:51:53;;;;;;;;;;;;;;;9.07;61.49;98354.47;5391251;32;33517;-74
2023/01/18 10:55:00;;;;;;;;;;;;;;;9.28;60.61;98361.87;5400962;32;32388;-72
2023/01/18 10:58:02;;;;;;;;;;;;;;;9.43;59.71;98366.09;5407758;32;34546;-68
2023/01/18 11:01:05;;;;;;;;;;;;;;;8.74;60.53;98369.72;5414591;32;34978;-71
2023/01/18 11:04:21;;;;;;;;;;;;;;;9.22;60.78;98382.31;5411132;32;34467;-77
2023/01/18 11:07:24;;;;;;;;;;;;;;;8.93;60.23;98381.56;5398706;32;44639;-77
2023/01/18 11:10:26;;;;;;;;;;;;;;;10.34;56.50;98387.06;5398736;32;33257;-85
2023/01/18 11:13:35;;;;;;;;;;;;;;;9.05;61.14;98389.56;5409740;32;35476;-78
2023/01/18 11:16:41;;;;;;;;;;;;;;;9.72;57.14;98382.50;5396134;32;34984;-81
2023/01/18 11:19:46;;;;;;;;;;;;;;;10.01;57.47;98386.63;5400328;32;34550;-84
2023/01/18 11:22:58;;;;;;;;;;;;;;;9.91;58.38;98398.66;5386073;32;44232;-84
2023/01/18 11:26:03;;;;;;;;;;;;;;;9.04;60.14;98404.47;5402585;32;34427;-84
2023/01/18 11:29:05;;;;;;;;;;;;;;;11.17;54.64;98405.66;5386666;32;33130;-82
2023/01/18 11:32:14;;;;;;;;;;;;;;;11.16;52.50;98420.59;5414115;32;33107;-77
2023/01/18 11:35:36;;;;;;;;;;;;;;;11.46;53.77;98432.41;5405778;32;44789;-89
2023/01/18 11:38:38;;;;;;;;;;;;;;;12.27;50.88;98432.44;5398666;32;34366;-81
2023/01/18 11:41:40;;;;;;;;;;;;;;;12.34;50.02;98427.56;5419965;32;35783;-80
2023/01/18 11:44:43;;;;;;;;;;;;;;;13.21;47.70;98423.31;5405300;32;36836;-79
2023/01/18 11:48:01;;;;;;;;;;;;;;;12.98;47.23;98433.88;5414846;32;34983;-78
2023/01/18 11:51:06;;;;;;;;;;;;;;;13.00;48.66;98434.56;5395265;32;34990;-81
2023/01/18 11:54:12;;;;;;;;;;;;;;;13.77;45.38;98444.22;5397507;32;32440;-87
2023/01/18 11:57:14;;;;;;;;;;;;;;;14.70;43.24;98454.00;5403761;32;36371;-68
2023/01/18 12:00:16;;;;;;;;;;;;;;;13.16;47.59;98463.22;5399712;32;43670;-72
2023/01/18 12:03:22;;;;;;;;;;;;;;;15.05;42.63;98461.47;5412834;32;33250;-69
2023/01/18 12:06:48;;;;;;;;;;;;;;;14.19;44.44;98475.94;5403056;32;34075;-79
2023/01/18 12:09:49;;;;;;;;;;;;;;;14.60;42.76;98480.38;5375767;32;46960;-84
2023/01/18 12:13:15;;;;;;;;;;;;;;;13.89;44.52;98479.31;5408254;32;33521;-69
2023/01/18 12:16:21;;;;;;;;;;;;;;;14.25;44.03;98480.72;5397812;32;45437;-76
2023/01/18 12:19:30;;;;;;;;;;;;;;;13.81;45.48;98483.44;5417368;32;33486;-73
2023/01/18 12:22:38;;;;;;;;;;;;;;;14.75;42.79;98492.28;5405700;32;35661;-73
2023/01/18 12:25:43;;;;;;;;;;;;;;;13.54;44.41;98504.19;5416597;32;33125;-74
2023/01/18 12:29:02;;;;;;;;;;;;;;;14.08;44.43;98509.34;5403999;32;33275;-80
2023/01/18 12:32:23;;;;;;;;;;;;;;;13.75;43.88;98517.44;5401484;32;33480;-72
2023/01/18 12:35:42;;;;;;;;;;;;;;;13.70;45.49;98507.22;5412449;32;44542;-78
2023/01/18 12:38:47;;;;;;;;;;;;;;;14.13;44.06;98522.19;5400531;32;33146;-78
2023/01/18 12:41:53;;;;;;;;;;;;;;;12.75;46.58;98537.66;5418086;32;47493;-81
2023/01/18 12:45:09;;;;;;;;;;;;;;;13.06;45.18;98543.19;5402626;32;35118;-73
2023/01/18 12:48:14;;;;;;;;;;;;;;;12.57;45.18;98547.84;5401658;32;35694;-74
2023/01/18 12:51:20;;;;;;;;;;;;;;;12.39;47.60;98536.06;5400376;32;45235;-80
2023/01/18 12:54:33;;;;;;;;;;;;;;;13.50;44.09;98547.59;5403789;32;34876;-86
2023/01/18 12:57:35;;;;;;;;;;;;;;;12.31;45.86;98555.06;5394327;32;33135;-83
2023/01/18 13:00:38;;;;;;;;;;;;;;;12.66;45.49;98560.28;5402870;32;32304;-79
2023/01/18 13:03:41;;;;;;;;;;;;;;;13.11;45.24;98564.75;5401095;32;34123;-76
2023/01/18 13:06:43;;;;;;;;;;;;;;;14.18;42.92;98572.84;5406874;32;32979;-79
2023/01/18 13:09:47;;;;;;;;;;;;;;;13.80;43.41;98583.91;5389023;32;35017;-71
2023/01/18 13:12:49;;;;;;;;;;;;;;;13.15;45.44;98577.59;5414070;32;45955;-79
2023/01/18 13:15:51;;;;;;;;;;;;;;;14.57;40.45;98594.31;5400925;32;33655;-79
2023/01/18 13:18:54;;;;;;;;;;;;;;;13.63;42.60;98587.06;5403383;32;34910;-77
2023/01/18 13:22:04;;;;;;;;;;;;;;;13.51;43.29;98597.63;5397265;32;34507;-73
2023/01/18 13:25:13;;;;;;;;;;;;;;;12.79;45.48;98612.91;5383518;32;31566;-77
2023/01/18 13:28:17;;;;;;;;;;;;;;;12.95;45.19;98621.34;5414569;32;33917;-75
2023/01/18 13:31:28;;;;;;;;;;;;;;;12.77;46.11;98635.94;5387721;32;44631;-69
2023/01/18 13:34:36;;;;;;;;;;;;;;;11.13;50.42;98649.53;5415703;32;34762;-79
2023/01/18 13:37:50;;;;;;;;;;;;;;;12.36;48.17;98642.47;5409057;32;44855;-73
2023/01/18 13:40:54;;;;;;;;;;;;;;;11.64;49.48;98658.19;5403783;32;33449;-69
2023/01/18 13:44:02;;;;;;;;;;;;;;;10.86;52.06;98654.88;5419713;32;33067;-81
2023/01/18 13:47:22;;;;;;;;;;;;;;;10.79;52.94;98645.75;5418128;32;33281;-88
2023/01/18 13:50:27;;;;;;;;;;;;;;;10.37;54.94;98629.28;5409711;32;44567;-71
2023/01/18 13:53:30;;;;;;;;;;;;;;;10.23;56.91;98637.19;5394716;32;34435;-77
2023/01/18 13:56:33;;;;;;;;;;;;;;;11.17;54.18;98639.66;5408118;32;32074;-81
2023/01/18 13:59:45;;;;;;;;;;;;;;;10.67;55.97;98631.63;5408662;32;34063;-78
2023/01/18 14:02:50;;;;;;;;;;;;;;;9.94;58.17;98644.31;5411623;32;44757;-88
2023/01/18 14:05:52;;;;;;;;;;;;;;;10.03;58.42;98652.44;5411875;32;33841;-82
2023/01/18 14:08:55;;;;;;;;;;;;;;;10.61;56.73;98645.19;5389362;32;33173;-77
2023/01/18 14:11:57;;;;;;;;;;;;;;;10.89;55.73;98661.75;5400146;32;34409;-76
2023/01/18 14:14:59;;;;;;;;;;;;;;;11.00;55.92;98664.47;5394655;32;34925;-87
2023/01/18 14:18:02;;;;;;;;;;;;;;;10.53;56.80;98666.72;5406022;32;34453;-85
2023/01/18 14:21:19;;;;;;;;;;;;;;;10.91;55.51;98680.88;5413081;32;34394;-70
2023/01/18 14:24:21;;;;;;;;;;;;;;;11.13;54.65;98678.44;5386529;32;44510;-73
2023/01/18 14:27:24;;;;;;;;;;;;;;;10.52;56.39;98688.66;5423713;32;33187;-75
2023/01/18 14:30:28;;;;;;;;;;;;;;;11.21;53.27;98705.09;5381641;32;33224;-74
2023/01/18 14:33:39;;;;;;;;;;;;;;;10.78;54.42;98701.88;5373823;32;33865;-78
2023/01/18 14:36:42;;;;;;;;;;;;;;;10.44;56.11;98704.09;5413222;32;33189;-84
2023/01/18 14:39:44;;;;;;;;;;;;;;;11.18;53.60;98709.69;5382308;32;34831;-74
2023/01/18 14:42:46;;;;;;;;;;;;;;;11.20;52.83;98692.03;5409782;32;43748;-81
2023/01/18 14:45:55;;;;;;;;;;;;;;;11.26;52.18;98705.59;5394330;32;33322;-75
2023/01/18 14:48:57;;;;;;;;;;;;;;;11.35;52.02;98718.13;5384847;32;33837;-76
2023/01/18 14:52:00;;;;;;;;;;;;;;;10.96;53.51;98720.84;5382571;32;33284;-78
2023/01/18 14:55:03;;;;;;;;;;;;;;;11.50;51.80;98715.38;5381098;32;34110;-72
2023/01/18 14:58:12;;;;;;;;;;;;;;;11.47;51.96;98720.87;5418086;32;33112;-77
2023/01/18 15:01:33;;;;;;;;;;;;;;;11.24;52.65;98725.91;5398093;32;34136;-73
2023/01/18 15:04:38;;;;;;;;;;;;;;;11.29;53.04;98729.06;5417996;32;34693;-79
2023/01/18 15:07:40;;;;;;;;;;;;;;;10.91;54.36;98710.63;5407254;32;33266;-79
2023/01/18 15:10:42;;;;;;;;;;;;;;;11.20;53.25;98716.53;5403495;32;34508;-71
2023/01/18 15:13:46;;;;;;;;;;;;;;;11.00;53.86;98717.88;5419544;32;34431;-84
2023/01/18 15:16:52;;;;;;;;;;;;;;;11.19;53.47;98717.47;5387928;32;44690;-79
2023/01/18 15:19:58;;;;;;;;;;;;;;;11.35;53.20;98712.03;5396675;32;33180;-75
2023/01/18 15:23:00;;;;;;;;;;;;;;;11.38;52.79;98699.50;5392769;32;33268;-71
2023/01/18 15:26:02;;;;;;;;;;;;;;;11.43;52.64;98706.22;5396213;32;33320;-75
2023/01/18 15:29:08;;;;;;;;;;;;;;;11.05;53.44;98697.37;5382807;32;33786;-72
2023/01/18 15:32:14;;;;;;;;;;;;;;;11.53;51.70;98697.59;5404564;32;34973;-85
2023/01/18 15:35:16;;;;;;;;;;;;;;;11.39;51.65;98701.16;5406598;32;34472;-74
2023/01/18 15:38:18;;;;;;;;;;;;;;;10.95;53.12;98704.22;5403097;32;33199;-78
2023/01/18 15:41:20;;;;;;;;;;;;;;;11.17;52.67;98708.03;5409664;32;33579;-84
2023/01/18 15:44:41;;;;;;;;;;;;;;;11.13;52.55;98725.78;5405966;32;33266;-77
2023/01/18 15:47:47;;;;;;;;;;;;;;;11.02;53.23;98746.72;5403224;32;33634;-81
2023/01/18 15:50:53;;;;;;;;;;;;;;;11.16;53.53;98741.38;5399790;32;44454;-79
2023/01/18 15:53:55;;;;;;;;;;;;;;;10.97;54.46;98760.16;5390595;32;34456;-78
2023/01/18 15:56:58;;;;;;;;;;;;;;;10.92;54.53;98774.53;5412823;32;34564;-78
2023/01/18 16:00:01;;;;;;;;;;;;;;;10.93;54.63;98766.53;5378996;32;33388;-78
2023/01/18 16:03:04;;;;;;;;;;;;;;;11.00;54.46;98774.87;5412721;32;34381;-83
2023/01/18 16:06:09;;;;;;;;;;;;;;;10.87;55.28;98774.00;5391542;32;34399;-82
2023/01/18 16:09:13;;;;;;;;;;;;;;;10.83;55.70;98770.75;5401234;32;32912;-78
2023/01/18 16:12:31;;;;;;;;;;;;;;;11.27;54.78;98770.41;5396003;32;33235;-83
2023/01/18 16:15:33;;;;;;;;;;;;;;;11.02;55.16;98773.00;5390996;32;34439;-83
2023/01/18 16:18:35;;;;;;;;;;;;;;;11.41;54.42;98795.78;5406432;32;34515;-77
2023/01/18 16:21:42;;;;;;;;;;;;;;;11.30;54.68;98793.03;5405596;32;33153;-83
2023/01/18 16:24:51;;;;;;;;;;;;;;;11.14;54.99;98798.44;5395455;32;33833;-83
2023/01/18 16:27:53;;;;;;;;;;;;;;;11.27;55.08;98798.47;5415845;32;44660;-83
2023/01/18 16:30:55;;;;;;;;;;;;;;;10.58;57.10;98800.41;5407097;32;34586;-83
2023/01/18 16:33:58;;;;;;;;;;;;;;;11.24;55.66;98798.69;5403220;32;34691;-79
2023/01/18 16:37:00;;;;;;;;;;;;;;;10.97;56.84;98801.38;5394458;32;34395;-79
2023/01/18 16:40:03;;;;;;;;;;;;;;;11.54;54.78;98780.00;5415934;32;33398;-78